createdAt,value
2018-01-10T00:01:22.690Z,96.00
2018-01-10T00:03:50.396Z,95.50
2018-01-10T00:06:18.032Z,95.50
2018-01-10T00:08:45.702Z,95.50
2018-01-10T00:16:37.104Z,95.10
2018-01-10T00:19:09.465Z,94.50
2018-01-10T00:21:38.795Z,94.50
2018-01-10T00:24:12.966Z,94.80
2018-01-10T00:26:41.494Z,95.50
2018-01-10T00:31:53.979Z,95.70
2018-01-10T00:34:23.244Z,95.40
2018-01-10T00:36:55.891Z,95.80
2018-01-10T00:39:29.558Z,95.40
2018-01-10T00:41:57.902Z,94.20
2018-01-10T00:44:27.797Z,95.70
2018-01-10T00:49:34.277Z,93.10
2018-01-10T01:00:28.150Z,96.30
2018-01-10T01:03:00.736Z,96.70
2018-01-10T01:05:35.159Z,95.60
2018-01-10T01:08:03.813Z,96.70
2018-01-10T01:10:32.698Z,96.70
2018-01-10T01:13:02.410Z,96.50
2018-01-10T01:15:30.596Z,97.40
2018-01-10T01:17:59.043Z,97.20
2018-01-10T01:20:27.285Z,96.90
2018-01-10T01:22:55.596Z,96.90
2018-01-10T01:25:31.007Z,97.30
2018-01-10T01:27:59.330Z,96.90
2018-01-10T01:30:28.412Z,96.50
2018-01-10T01:32:57.908Z,96.10
2018-01-10T01:38:08.753Z,95.80
2018-01-10T01:40:44.791Z,96.60
2018-01-10T01:43:14.200Z,96.00
2018-01-10T01:45:42.792Z,95.20
2018-01-10T01:48:12.441Z,95.00
2018-01-10T01:50:42.208Z,94.80
2018-01-10T01:53:12.047Z,94.30
2018-01-10T01:55:40.636Z,94.50
2018-01-10T01:58:08.991Z,94.50
2018-01-10T02:00:40.507Z,94.30
2018-01-10T02:05:53.488Z,95.00
2018-01-10T02:08:22.003Z,94.90
2018-01-10T02:10:50.414Z,94.60
2018-01-10T02:13:20.123Z,93.90
2018-01-10T02:15:48.946Z,95.30
2018-01-10T02:18:18.871Z,96.80
2018-01-10T02:20:52.707Z,96.10
2018-01-10T02:23:22.068Z,96.80
2018-01-10T02:25:51.208Z,97.00
2018-01-10T02:30:58.571Z,96.40
2018-01-10T02:36:05.197Z,95.60
2018-01-10T02:38:33.780Z,95.90
2018-01-10T02:41:03.139Z,95.90
2018-01-10T02:43:34.887Z,98.10
2018-01-10T02:48:32.967Z,98.00
2018-01-10T02:51:02.053Z,97.90
2018-01-10T02:53:35.646Z,97.60
2018-01-10T02:56:04.191Z,96.60
2018-01-10T02:58:34.382Z,97.00
2018-01-10T03:01:03.937Z,97.00
2018-01-10T03:03:32.927Z,96.80
2018-01-10T03:06:02.435Z,97.20
2018-01-10T03:13:51.939Z,97.70
2018-01-10T03:16:20.703Z,97.90
2018-01-10T03:18:53.082Z,97.10
2018-01-10T03:21:25.264Z,96.60
2018-01-10T03:23:54.591Z,96.50
2018-01-10T03:26:23.895Z,96.10
2018-01-10T03:28:58.434Z,96.30
2018-01-10T03:31:27.864Z,96.10
2018-01-10T03:33:56.480Z,95.80
2018-01-10T03:36:25.137Z,95.00
2018-01-10T03:38:55.032Z,94.50
2018-01-10T03:41:23.855Z,94.80
2018-01-10T03:43:52.847Z,95.30
2018-01-10T03:46:21.548Z,96.30
2018-01-10T04:00:19.821Z,97.30
2018-01-10T04:02:48.155Z,97.00
2018-01-10T04:05:16.764Z,96.20
2018-01-10T04:07:50.737Z,95.30
2018-01-10T04:10:20.111Z,94.80
2018-01-10T04:12:48.508Z,94.20
2018-01-10T04:15:17.085Z,93.70
2018-01-10T04:17:50.965Z,93.80
2018-01-10T04:20:20.624Z,93.90
2018-01-10T04:22:51.416Z,94.70
2018-01-10T04:36:50.159Z,93.40
2018-01-10T04:39:18.676Z,92.90
2018-01-10T04:41:54.631Z,92.70
2018-01-10T04:44:22.441Z,92.50
2018-01-10T04:46:57.768Z,92.80
2018-01-10T04:49:26.619Z,93.60
2018-01-10T04:52:00.760Z,94.10
2018-01-10T04:54:30.149Z,94.30
2018-01-10T04:59:39.175Z,94.10
2018-01-10T05:02:15.295Z,93.20
2018-01-10T05:04:42.722Z,91.90
2018-01-10T05:07:11.283Z,91.80
2018-01-10T05:12:30.728Z,92.20
2018-01-10T05:15:00.444Z,93.20
2018-01-10T05:17:28.907Z,93.40
2018-01-10T05:19:57.536Z,93.40
2018-01-10T05:22:26.322Z,93.80
2018-01-10T05:24:55.249Z,94.50
2018-01-10T05:27:24.242Z,94.50
2018-01-10T05:50:00.545Z,95.20
2018-01-10T05:52:30.089Z,95.60
2018-01-10T05:55:02.766Z,95.80
2018-01-10T05:57:37.704Z,96.00
2018-01-10T06:00:10.094Z,95.70
2018-01-10T06:05:13.484Z,95.40
2018-01-10T06:07:44.445Z,95.60
2018-01-10T06:10:19.505Z,95.50
2018-01-10T06:12:48.808Z,95.30
2018-01-10T06:15:18.281Z,95.00
2018-01-10T06:17:46.920Z,95.10
2018-01-10T06:20:20.543Z,95.00
2018-01-10T06:22:50.655Z,95.10
2018-01-10T06:25:20.429Z,95.30
2018-01-10T06:27:48.856Z,95.20
2018-01-10T06:30:19.429Z,95.20
2018-01-10T06:32:48.999Z,95.50
2018-01-10T06:35:19.137Z,95.80
2018-01-10T06:37:50.730Z,96.50
2018-01-10T06:40:19.695Z,96.80
2018-01-10T06:42:49.085Z,96.60
2018-01-10T06:45:25.149Z,96.40
2018-01-10T06:47:55.093Z,96.40
2018-01-10T06:50:27.568Z,96.10
2018-01-10T06:52:56.860Z,96.30
2018-01-10T06:55:31.414Z,96.40
2018-01-10T07:00:41.640Z,95.50
2018-01-10T07:03:11.135Z,95.40
2018-01-10T07:05:43.790Z,95.60
2018-01-10T07:08:13.861Z,94.40
2018-01-10T07:10:45.523Z,94.40
2018-01-10T07:13:19.465Z,94.40
2018-01-10T07:15:49.167Z,94.60
2018-01-10T07:18:19.168Z,94.60
2018-01-10T07:20:49.923Z,94.90
2018-01-10T07:23:18.884Z,94.80
2018-01-10T07:25:49.569Z,94.60
2018-01-10T07:28:19.804Z,94.60
2018-01-10T07:30:49.411Z,94.60
2018-01-10T07:33:23.136Z,94.50
2018-01-10T07:35:52.127Z,93.90
2018-01-10T07:38:22.260Z,93.80
2018-01-10T07:40:51.556Z,94.00
2018-01-10T07:43:20.433Z,93.40
2018-01-10T07:45:49.103Z,93.10
2018-01-10T07:48:22.127Z,92.60
2018-01-10T07:50:51.466Z,92.40
2018-01-10T07:53:24.575Z,92.40
2018-01-10T07:55:53.611Z,92.50
2018-01-10T07:58:23.246Z,91.40
2018-01-10T08:00:53.044Z,90.70
2018-01-10T08:03:26.011Z,90.40
2018-01-10T08:05:56.064Z,90.30
2018-01-10T08:14:10.033Z,89.90
2018-01-10T08:16:42.899Z,89.80
2018-01-10T08:19:11.574Z,89.90
2018-01-10T08:21:44.150Z,90.10
2018-01-10T08:24:13.116Z,90.50
2018-01-10T08:29:23.196Z,87.60
2018-01-10T08:31:55.771Z,86.40
2018-01-10T08:34:26.331Z,86.60
2018-01-10T08:36:55.299Z,85.30
2018-01-10T08:45:13.296Z,84.20
2018-01-10T08:47:46.623Z,84.40
2018-01-10T08:50:16.548Z,83.50
2018-01-10T08:52:45.865Z,83.50
2018-01-10T08:55:16.521Z,80.80
2018-01-10T08:57:49.988Z,78.90
2018-01-10T09:00:19.990Z,78.10
2018-01-10T09:14:19.992Z,75.90
2018-01-10T09:16:50.130Z,75.10
2018-01-10T09:19:18.731Z,73.00
2018-01-10T09:21:52.579Z,72.00
2018-01-10T09:24:21.021Z,69.30
2018-01-10T09:49:59.875Z,72.70
2018-01-10T09:52:29.688Z,71.40
2018-01-10T09:54:58.145Z,71.00
2018-01-10T09:57:26.741Z,69.70
2018-01-10T10:00:00.035Z,70.00
2018-01-10T10:02:28.691Z,68.30
2018-01-10T10:05:02.169Z,68.30
2018-01-10T10:07:33.760Z,65.70
2018-01-10T10:10:02.553Z,65.50
2018-01-10T10:12:31.621Z,66.90
2018-01-10T10:15:00.297Z,65.90
2018-01-10T10:17:29.297Z,65.30
2018-01-10T10:19:58.944Z,63.80
2018-01-10T10:22:28.518Z,60.90
2018-01-10T10:25:02.000Z,55.80
2018-01-10T10:27:30.955Z,54.60
2018-01-10T10:30:04.232Z,52.10
2018-01-10T10:32:33.896Z,53.90
2018-01-10T10:37:42.171Z,53.50
2018-01-10T10:40:11.037Z,51.20
2018-01-10T10:42:39.223Z,52.00
2018-01-10T10:45:07.717Z,57.80
2018-01-10T10:47:36.291Z,61.40
2018-01-10T10:50:12.871Z,61.10
2018-01-10T10:52:42.158Z,60.70
2018-01-10T10:55:15.618Z,60.80
2018-01-10T10:57:45.113Z,61.90
2018-01-10T11:00:14.920Z,60.60
2018-01-10T11:02:43.779Z,59.60
2018-01-10T11:05:18.204Z,56.70
2018-01-10T11:07:47.863Z,57.00
2018-01-10T11:10:22.014Z,57.30
2018-01-10T11:12:52.577Z,54.10
2018-01-10T11:15:22.190Z,54.70
2018-01-10T11:17:51.077Z,53.70
2018-01-10T11:20:21.328Z,51.00
2018-01-10T11:22:50.555Z,48.60
2018-01-10T11:25:23.118Z,50.90
2018-01-10T11:27:52.574Z,48.50
2018-01-10T11:30:21.014Z,48.40
2018-01-10T11:32:49.437Z,47.30
2018-01-10T11:35:17.982Z,49.70
2018-01-10T11:37:47.193Z,51.00
2018-01-10T11:40:16.513Z,51.40
2018-01-10T11:42:51.165Z,51.60
2018-01-10T11:47:59.643Z,52.70
2018-01-10T11:50:34.501Z,50.80
2018-01-10T11:53:03.268Z,50.10
2018-01-10T11:55:31.918Z,50.30
2018-01-10T11:58:00.347Z,50.40
2018-01-10T12:00:29.768Z,49.20
2018-01-10T12:02:59.168Z,50.50
2018-01-10T12:08:05.245Z,51.50
2018-01-10T12:10:38.632Z,51.00
2018-01-10T12:13:08.234Z,48.00
2018-01-10T12:15:42.710Z,46.70
2018-01-10T12:18:11.599Z,46.80
2018-01-10T12:20:39.868Z,48.20
2018-01-10T12:23:08.212Z,47.80
2018-01-10T12:25:41.995Z,47.10
2018-01-10T12:28:11.135Z,46.80
2018-01-10T12:30:40.616Z,45.80
2018-01-10T12:33:10.081Z,43.70
2018-01-10T12:35:39.092Z,43.50
2018-01-10T12:38:07.489Z,44.50
2018-01-10T12:40:37.744Z,41.40
2018-01-10T12:43:06.169Z,41.90
2018-01-10T12:45:38.518Z,41.90
2018-01-10T12:48:07.090Z,42.50
2018-01-10T12:50:39.630Z,41.50
2018-01-10T12:53:08.185Z,42.60
2018-01-10T12:58:22.943Z,44.00
2018-01-10T13:00:56.242Z,44.90
2018-01-10T13:03:26.599Z,41.70
2018-01-10T13:05:55.981Z,39.90
2018-01-10T13:08:24.392Z,41.20
2018-01-10T13:10:58.709Z,42.20
2018-01-10T13:13:27.454Z,42.90
2018-01-10T13:15:56.206Z,43.10
2018-01-10T13:18:24.818Z,40.90
2018-01-10T13:23:36.981Z,41.30
2018-01-10T13:26:06.600Z,40.20
2018-01-10T13:31:15.236Z,41.50
2018-01-10T13:33:42.873Z,41.50
2018-01-10T13:36:10.519Z,39.80
2018-01-10T13:38:38.227Z,41.20
2018-01-10T13:41:05.870Z,41.30
2018-01-10T13:43:33.549Z,40.30
2018-01-10T13:46:01.206Z,39.80
2018-01-10T13:48:28.854Z,38.60
2018-01-10T13:50:57.359Z,39.50
2018-01-10T13:53:25.926Z,39.30
2018-01-10T13:58:34.600Z,39.90
2018-01-10T14:01:09.249Z,38.20
2018-01-10T14:03:37.959Z,39.20
2018-01-10T14:06:11.453Z,41.50
2018-01-10T14:08:40.119Z,39.30
2018-01-10T14:11:08.955Z,41.10
2018-01-10T14:13:37.449Z,42.70
2018-01-10T14:16:06.092Z,43.60
2018-01-10T14:18:35.548Z,45.60
2018-01-10T14:21:08.830Z,48.20
2018-01-10T14:23:37.118Z,48.40
2018-01-10T14:26:11.848Z,45.20
2018-01-10T14:28:41.247Z,47.10
2018-01-10T14:31:09.863Z,49.20
2018-01-10T14:33:38.401Z,49.40
2018-01-10T14:36:13.033Z,49.10
2018-01-10T14:38:41.726Z,48.70
2018-01-10T14:41:10.309Z,49.80
2018-01-10T14:43:38.904Z,47.40
2018-01-10T14:46:11.715Z,49.20
2018-01-10T14:48:41.206Z,48.90
2018-01-10T14:53:48.012Z,50.10
2018-01-10T14:56:21.554Z,50.70
2018-01-10T14:58:51.392Z,51.90
2018-01-10T15:01:20.512Z,51.90
2018-01-10T15:03:49.092Z,52.10
2018-01-10T15:06:18.080Z,53.20
2018-01-10T15:08:47.306Z,46.50
2018-01-10T15:11:16.693Z,50.90
2018-01-10T15:13:45.086Z,52.20
2018-01-10T15:16:18.749Z,49.70
2018-01-10T15:18:47.515Z,47.20
2018-01-10T15:21:15.889Z,51.40
2018-01-10T15:23:44.826Z,50.10
2018-01-10T15:28:51.823Z,49.10
2018-01-10T15:33:59.871Z,46.50
2018-01-10T15:36:28.695Z,47.50
2018-01-10T15:38:57.396Z,47.00
2018-01-10T15:41:27.299Z,46.80
2018-01-10T15:43:55.816Z,47.70
2018-01-10T15:46:25.221Z,47.10
2018-01-10T15:48:53.956Z,51.00
2018-01-10T15:51:23.068Z,52.50
2018-01-10T15:53:51.597Z,52.20
2018-01-10T15:56:24.170Z,50.90
2018-01-10T15:58:53.656Z,50.90
2018-01-10T16:01:27.542Z,51.60
2018-01-10T16:03:56.070Z,52.50
2018-01-10T16:17:56.400Z,49.00
2018-01-10T16:20:30.511Z,47.80
2018-01-10T16:22:59.119Z,49.90
2018-01-10T16:25:28.621Z,52.70
2018-01-10T16:27:57.430Z,55.30
2018-01-10T16:30:26.937Z,52.10
2018-01-10T16:32:55.539Z,58.10
2018-01-10T16:35:24.965Z,54.80
2018-01-10T16:37:54.568Z,56.30
2018-01-10T16:40:23.938Z,57.20
2018-01-10T16:42:53.316Z,54.20
2018-01-10T16:45:22.933Z,50.30
2018-01-10T16:47:51.955Z,56.20
2018-01-10T16:50:24.750Z,54.10
2018-01-10T16:52:58.118Z,61.00
2018-01-10T16:55:31.866Z,63.90
2018-01-10T16:58:00.703Z,62.50
2018-01-10T17:00:29.786Z,60.30
2018-01-10T17:03:04.261Z,58.60
2018-01-10T17:08:10.568Z,61.40
2018-01-10T17:42:17.280Z,56.00
2018-01-10T17:47:40.719Z,60.40
2018-01-10T17:50:09.538Z,61.40
2018-01-10T17:52:42.450Z,57.40
2018-01-10T18:06:47.613Z,52.40
2018-01-10T18:09:16.533Z,61.80
2018-01-10T18:11:44.819Z,73.00
2018-01-10T18:16:56.515Z,74.80
2018-01-10T18:31:00.048Z,76.40
2018-01-10T18:33:28.510Z,77.20
2018-01-10T18:36:01.392Z,74.30
2018-01-10T18:38:31.097Z,71.50
2018-01-10T18:41:02.799Z,75.60
2018-01-10T18:43:31.486Z,77.50
2018-01-10T18:46:00.141Z,79.00
2018-01-10T18:48:28.762Z,81.10
2018-01-10T18:50:57.771Z,82.40
2018-01-10T18:53:26.449Z,81.70
2018-01-10T18:55:56.660Z,82.90
2018-01-10T18:58:30.051Z,81.00
2018-01-10T19:00:58.555Z,82.10
2018-01-10T19:03:32.003Z,83.00
2018-01-10T19:06:05.851Z,82.60
2018-01-10T19:08:36.089Z,81.70
2018-01-10T19:11:09.958Z,80.10
2018-01-10T19:13:44.035Z,79.70
2018-01-10T19:16:12.639Z,78.70
2018-01-10T19:18:41.435Z,81.60
2018-01-10T19:21:14.616Z,83.50
2018-01-10T19:29:29.482Z,84.20
2018-01-10T19:31:58.135Z,84.50
2018-01-10T19:34:27.385Z,83.50
2018-01-10T19:36:55.715Z,83.30
2018-01-10T19:42:05.589Z,80.90
2018-01-10T19:44:34.819Z,81.20
2018-01-10T19:55:41.220Z,84.30
2018-01-10T19:58:14.626Z,84.60
2018-01-10T20:00:43.455Z,82.60
2018-01-10T20:03:12.191Z,80.30
2018-01-10T20:05:41.039Z,79.30
2018-01-10T20:08:09.957Z,78.90
2018-01-10T20:10:43.635Z,78.40
2018-01-10T20:13:12.855Z,87.00
2018-01-10T20:15:46.273Z,88.50
2018-01-10T20:18:14.898Z,80.90
2018-01-10T20:20:43.032Z,81.20
2018-01-10T20:23:11.705Z,80.00
2018-01-10T20:25:45.088Z,78.10
2018-01-10T20:28:13.796Z,77.20
2018-01-10T20:30:42.364Z,76.70
2018-01-10T20:44:29.942Z,80.70
2018-01-10T20:46:58.161Z,81.70
2018-01-10T20:49:26.406Z,81.80
2018-01-10T20:51:55.559Z,80.90
2018-01-10T20:54:25.828Z,83.50
2018-01-10T20:56:54.491Z,87.00
2018-01-10T20:59:23.400Z,87.20
2018-01-10T21:01:58.710Z,87.00
2018-01-10T21:04:27.356Z,87.20
2018-01-10T21:06:55.736Z,87.50
2018-01-10T21:09:24.396Z,88.00
2018-01-10T21:11:52.838Z,87.40
2018-01-10T21:14:22.307Z,87.00
2018-01-10T21:16:50.710Z,88.20
2018-01-10T21:19:19.044Z,88.70
2018-01-10T21:21:47.269Z,88.80
2018-01-10T21:24:27.514Z,87.70
2018-01-10T21:26:55.243Z,86.30
2018-01-10T21:29:22.867Z,86.10
2018-01-10T21:31:50.593Z,85.60
2018-01-10T21:34:18.249Z,84.70
2018-01-10T21:36:46.231Z,84.90
2018-01-10T21:41:58.445Z,87.10
2018-01-10T21:47:09.782Z,84.20
2018-01-10T21:49:39.225Z,83.30
2018-01-10T21:52:13.783Z,82.30
2018-01-10T21:54:44.281Z,81.30
2018-01-10T21:57:13.939Z,80.40
2018-01-10T21:59:42.730Z,79.80
2018-01-10T22:02:11.043Z,79.50
2018-01-10T22:07:24.088Z,81.30
2018-01-10T22:09:53.080Z,83.90
2018-01-10T22:12:21.330Z,85.70
2018-01-10T22:14:50.216Z,86.50
2018-01-10T22:17:18.655Z,86.70
2018-01-10T22:19:52.086Z,87.90
2018-01-10T22:22:20.672Z,88.70
2018-01-10T22:24:54.561Z,89.30
2018-01-10T22:27:23.238Z,89.20
2018-01-10T22:32:30.307Z,87.70
2018-01-10T22:35:02.496Z,86.90
2018-01-10T22:43:19.764Z,93.70
2018-01-10T22:45:53.735Z,91.40
2018-01-10T22:48:25.550Z,87.00
2018-01-10T22:50:54.340Z,86.00
2018-01-10T22:53:23.094Z,86.20
2018-01-10T22:55:51.746Z,84.20
2018-01-10T22:58:20.547Z,84.00
2018-01-10T23:00:49.949Z,85.30
2018-01-10T23:03:18.480Z,86.90
2018-01-10T23:05:48.850Z,88.20
2018-01-10T23:08:17.330Z,88.30
2018-01-10T23:10:47.100Z,87.90
2018-01-10T23:13:16.945Z,87.10
2018-01-10T23:15:46.820Z,87.00
2018-01-10T23:21:03.569Z,86.90
2018-01-10T23:23:31.528Z,89.10
2018-01-10T23:26:00.615Z,89.20
2018-01-10T23:28:29.461Z,88.50
2018-01-10T23:30:58.337Z,88.10
2018-01-10T23:33:27.975Z,87.50
2018-01-10T23:35:56.487Z,85.60
2018-01-10T23:38:25.360Z,84.40
2018-01-10T23:40:59.230Z,83.60
2018-01-10T23:43:33.300Z,82.50
2018-01-10T23:46:02.295Z,82.90
2018-01-10T23:48:36.700Z,82.30
2018-01-10T23:51:06.314Z,82.90
2018-01-10T23:53:34.857Z,83.20
2018-01-10T23:58:58.767Z,84.20
